Terminal Aerodrome Forecast
Issued by NWS

Home | Current Version | Previous Version | Text Only | Print | Product List | Glossary Off
Versions: 1 2 3 4 5 6 7 8 9 10 11 12 13 14 15 16 17 18 19 20 21 22 23

000
FTUS42 KMHX 250100 AAA
TAFISO
TAF AMD
KISO 250137Z 2502/2524 18010G20KT P6SM VCSH SCT050 BKN100
     FM250400 25009KT 5SM BR OVC010
     FM250900 28010G15KT P6SM BKN030
     FM251600 30010KT P6SM SCT250
      AMD LTD TO CLD VIS AND WIND=

USA.gov is the U.S. government's official web portal to all federal, state and local government web resources and services.